createdAt,value
2019-02-21T00:00:24.523Z,14.28
2019-02-21T00:05:30.824Z,14.46
2019-02-21T00:10:39.558Z,14.25
2019-02-21T00:15:48.282Z,14.99
2019-02-21T00:20:56.932Z,16.26
2019-02-21T00:26:05.795Z,14.74
2019-02-21T00:31:14.124Z,14.24
2019-02-21T00:36:23.158Z,14.54
2019-02-21T00:41:31.609Z,14.24
2019-02-21T00:46:40.294Z,13.89
2019-02-21T00:51:48.706Z,13.62
2019-02-21T00:56:57.720Z,13.27
2019-02-21T01:02:06.007Z,13.06
2019-02-21T01:07:14.851Z,12.75
2019-02-21T01:12:23.261Z,13.11
2019-02-21T01:17:32.079Z,14.20
2019-02-21T01:22:40.436Z,14.19
2019-02-21T01:27:49.369Z,14.11
2019-02-21T01:32:56.525Z,13.48
2019-02-21T01:38:05.589Z,13.74
2019-02-21T01:43:13.972Z,13.04
2019-02-21T01:48:22.771Z,12.81
2019-02-21T01:53:31.161Z,12.43
2019-02-21T01:58:39.957Z,12.11
2019-02-21T02:03:48.370Z,12.44
2019-02-21T02:08:57.341Z,12.40
2019-02-21T02:14:05.725Z,11.50
2019-02-21T02:19:14.615Z,11.71
2019-02-21T02:24:23.152Z,12.19
2019-02-21T02:29:32.228Z,12.16
2019-02-21T02:34:40.642Z,11.63
2019-02-21T02:39:49.697Z,11.37
2019-02-21T02:44:58.057Z,10.68
2019-02-21T02:50:06.846Z,11.50
2019-02-21T02:55:15.417Z,11.62
2019-02-21T03:00:24.120Z,11.64
2019-02-21T03:05:32.438Z,10.60
2019-02-21T03:10:41.550Z,10.83
2019-02-21T03:15:49.962Z,10.12
2019-02-21T03:20:59.681Z,10.81
2019-02-21T03:26:08.128Z,9.67
2019-02-21T03:31:17.002Z,10.22
2019-02-21T03:36:25.335Z,10.17
2019-02-21T03:41:32.743Z,10.52
2019-02-21T03:46:41.167Z,10.75
2019-02-21T03:51:49.852Z,10.49
2019-02-21T03:56:58.177Z,11.26
2019-02-21T04:02:06.879Z,12.12
2019-02-21T04:07:15.409Z,12.42
2019-02-21T04:12:24.634Z,11.95
2019-02-21T04:17:32.996Z,12.88
2019-02-21T04:22:40.394Z,12.80
2019-02-21T04:27:48.871Z,12.96
2019-02-21T04:32:58.731Z,13.25
2019-02-21T04:38:07.151Z,12.67
2019-02-21T04:43:15.735Z,13.32
2019-02-21T04:48:24.160Z,13.14
2019-02-21T04:53:32.884Z,12.92
2019-02-21T04:58:41.420Z,13.25
2019-02-21T05:03:50.341Z,12.72
2019-02-21T05:08:58.776Z,13.16
2019-02-21T05:14:07.461Z,12.90
2019-02-21T05:19:16.211Z,13.21
2019-02-21T05:24:24.602Z,13.20
2019-02-21T05:29:33.293Z,12.66
2019-02-21T05:34:41.743Z,12.29
2019-02-21T05:39:50.377Z,11.60
2019-02-21T05:44:59.583Z,11.65
2019-02-21T05:50:09.103Z,11.54
2019-02-21T05:55:07.510Z,11.32
2019-02-21T06:00:16.215Z,10.89
2019-02-21T06:05:24.673Z,11.49
2019-02-21T06:10:33.061Z,11.98
2019-02-21T06:15:41.828Z,11.11
2019-02-21T06:20:50.216Z,11.23
2019-02-21T06:25:59.383Z,11.77
2019-02-21T06:31:07.014Z,12.94
2019-02-21T06:36:15.781Z,12.94
2019-02-21T06:41:24.198Z,13.25
2019-02-21T06:46:32.876Z,14.05
2019-02-21T06:51:41.360Z,15.59
2019-02-21T06:56:55.426Z,16.23
2019-02-21T07:01:54.063Z,16.22
2019-02-21T07:07:02.475Z,15.51
2019-02-21T07:12:12.386Z,15.04
2019-02-21T07:17:20.920Z,15.52
2019-02-21T07:22:29.860Z,16.90
2019-02-21T07:27:38.259Z,17.54
2019-02-21T07:32:48.562Z,16.24
2019-02-21T07:37:46.971Z,16.70
2019-02-21T07:42:55.549Z,15.99
2019-02-21T07:48:04.267Z,16.94
2019-02-21T07:53:12.767Z,16.95
2019-02-21T07:58:21.450Z,17.00
2019-02-21T08:03:43.122Z,18.68
2019-02-21T08:08:38.368Z,19.31
2019-02-21T08:13:47.185Z,18.50
2019-02-21T08:18:56.082Z,18.72
2019-02-21T08:24:05.020Z,17.92
2019-02-21T08:29:13.703Z,17.82
2019-02-21T08:34:22.503Z,18.12
2019-02-21T08:39:30.940Z,17.50
2019-02-21T08:44:39.836Z,18.56
2019-02-21T08:49:48.191Z,19.26
2019-02-21T08:55:00.142Z,19.28
2019-02-21T09:00:05.553Z,20.01
2019-02-21T09:05:15.393Z,19.64
2019-02-21T09:10:23.776Z,18.87
2019-02-21T09:15:32.694Z,18.49
2019-02-21T09:20:41.054Z,18.70
2019-02-21T09:25:49.916Z,18.69
2019-02-21T09:30:58.344Z,19.08
2019-02-21T09:36:06.740Z,19.18
2019-02-21T09:41:15.402Z,19.16
2019-02-21T09:46:23.985Z,19.95
2019-02-21T09:51:33.146Z,20.08
2019-02-21T09:56:52.064Z,20.46
2019-02-21T10:01:49.782Z,19.94
2019-02-21T10:06:58.737Z,20.18
2019-02-21T10:12:07.517Z,21.29
2019-02-21T10:17:15.932Z,20.77
2019-02-21T10:22:26.126Z,20.83
2019-02-21T10:27:32.464Z,20.85
2019-02-21T10:32:41.725Z,21.50
2019-02-21T10:37:50.155Z,20.91
2019-02-21T10:42:58.867Z,21.37
2019-02-21T10:48:07.432Z,20.52
2019-02-21T10:53:16.229Z,21.58
2019-02-21T10:58:25.196Z,21.63
2019-02-21T11:03:33.757Z,21.30
2019-02-21T11:08:42.843Z,21.87
2019-02-21T11:13:51.559Z,20.60
2019-02-21T11:18:59.934Z,20.96
2019-02-21T11:24:08.874Z,21.17
2019-02-21T11:29:17.904Z,21.12
2019-02-21T11:34:26.632Z,20.86
2019-02-21T11:39:35.137Z,20.08
2019-02-21T11:44:50.383Z,20.33
2019-02-21T11:49:49.241Z,20.25
2019-02-21T11:54:59.437Z,20.74
2019-02-21T11:59:58.332Z,21.06
2019-02-21T12:05:17.151Z,20.39
2019-02-21T12:10:16.183Z,20.67
2019-02-21T12:15:25.205Z,19.96
2019-02-21T12:20:34.485Z,20.80
2019-02-21T12:25:43.597Z,20.28
2019-02-21T12:30:53.063Z,20.41
2019-02-21T12:36:03.117Z,20.14
2019-02-21T12:41:02.432Z,19.41
2019-02-21T12:46:09.753Z,19.62
2019-02-21T12:51:18.920Z,20.06
2019-02-21T12:56:27.950Z,19.54
2019-02-21T13:01:38.545Z,20.36
2019-02-21T13:06:37.550Z,19.46
2019-02-21T13:11:46.402Z,19.18
2019-02-21T13:16:55.561Z,19.00
2019-02-21T13:22:04.936Z,19.45
2019-02-21T13:27:14.524Z,18.88
2019-02-21T13:32:24.672Z,17.74
2019-02-21T13:37:28.958Z,18.59
2019-02-21T13:42:31.890Z,18.41
2019-02-21T13:47:41.197Z,19.86
2019-02-21T13:52:50.148Z,19.07
2019-02-21T13:57:59.511Z,19.33
2019-02-21T14:03:08.520Z,19.38
2019-02-21T14:08:18.161Z,20.63
2019-02-21T14:13:26.642Z,20.36
2019-02-21T14:18:35.724Z,20.37
2019-02-21T14:23:44.725Z,21.22
2019-02-21T14:28:53.818Z,20.84
2019-02-21T14:34:03.346Z,21.16
2019-02-21T14:39:12.331Z,21.07
2019-02-21T14:44:19.795Z,21.28
2019-02-21T14:49:29.007Z,20.84
2019-02-21T14:54:38.203Z,21.22
2019-02-21T14:59:47.557Z,22.45
2019-02-21T15:04:56.523Z,22.09
2019-02-21T15:10:04.318Z,21.91
2019-02-21T15:15:13.288Z,21.15
2019-02-21T15:20:22.593Z,22.62
2019-02-21T15:25:31.954Z,20.87
2019-02-21T15:30:40.958Z,21.86
2019-02-21T15:35:49.861Z,21.76
2019-02-21T15:41:01.255Z,21.69
2019-02-21T15:46:00.346Z,21.65
2019-02-21T15:51:09.373Z,20.73
2019-02-21T15:56:17.818Z,21.13
2019-02-21T16:01:27.170Z,21.04
2019-02-21T16:06:37.940Z,20.68
2019-02-21T16:11:45.935Z,21.19
2019-02-21T16:16:44.314Z,20.78
2019-02-21T16:21:53.247Z,21.69
2019-02-21T16:27:02.624Z,21.92
2019-02-21T16:32:12.017Z,20.31
2019-02-21T16:37:21.484Z,20.75
2019-02-21T16:42:30.539Z,20.46
2019-02-21T16:47:40.954Z,21.59
2019-02-21T16:52:40.291Z,20.44
2019-02-21T16:57:49.334Z,21.40
2019-02-21T17:03:02.260Z,21.80
2019-02-21T17:08:01.885Z,21.42
2019-02-21T17:13:10.877Z,21.82
2019-02-21T17:18:25.847Z,21.52
2019-02-21T17:23:24.761Z,22.14
2019-02-21T17:28:33.847Z,22.92
2019-02-21T17:33:43.199Z,25.48
2019-02-21T17:38:52.304Z,23.64
2019-02-21T17:44:02.991Z,23.60
2019-02-21T17:49:01.919Z,23.13
2019-02-21T17:54:10.542Z,22.58
2019-02-21T17:59:19.853Z,23.22
2019-02-21T18:04:28.946Z,22.35
2019-02-21T18:09:38.186Z,23.10
2019-02-21T18:14:47.151Z,23.10
2019-02-21T18:19:56.353Z,22.59
2019-02-21T18:25:05.395Z,22.78
2019-02-21T18:30:14.471Z,24.05
2019-02-21T18:35:23.466Z,24.63
2019-02-21T18:40:32.849Z,24.10
2019-02-21T18:45:41.936Z,24.60
2019-02-21T18:50:51.574Z,25.18
2019-02-21T18:56:00.204Z,24.31
2019-02-21T19:01:08.801Z,23.95
2019-02-21T19:06:18.028Z,24.79
2019-02-21T19:11:27.064Z,24.65
2019-02-21T19:16:36.351Z,25.68
2019-02-21T19:21:45.965Z,24.54
2019-02-21T19:26:54.987Z,25.25
2019-02-21T19:32:04.005Z,28.68
2019-02-21T19:37:13.311Z,28.95
2019-02-21T19:42:22.336Z,28.45
2019-02-21T19:47:31.180Z,26.40
2019-02-21T19:52:39.748Z,26.12
2019-02-21T19:57:49.667Z,27.19
2019-02-21T20:02:58.902Z,27.17
2019-02-21T20:08:08.996Z,27.67
2019-02-21T20:13:16.330Z,27.41
2019-02-21T20:18:26.669Z,26.66
2019-02-21T20:23:26.047Z,27.58
2019-02-21T20:28:34.934Z,26.76
2019-02-21T20:33:44.730Z,27.42
2019-02-21T20:38:53.452Z,27.30
2019-02-21T20:44:03.710Z,27.82
2019-02-21T20:49:02.200Z,25.88
2019-02-21T20:54:12.955Z,26.95
2019-02-21T20:59:19.529Z,25.33
2019-02-21T21:04:28.779Z,25.77
2019-02-21T21:09:37.972Z,26.60
2019-02-21T21:14:47.296Z,26.69
2019-02-21T21:19:56.286Z,27.01
2019-02-21T21:25:08.673Z,27.59
2019-02-21T21:30:07.524Z,28.71
2019-02-21T21:35:17.073Z,29.42
2019-02-21T21:40:26.319Z,26.53
2019-02-21T21:45:35.321Z,28.41
2019-02-21T21:50:44.270Z,27.55
2019-02-21T21:55:54.281Z,26.40
2019-02-21T22:00:53.653Z,26.74
2019-02-21T22:06:02.548Z,26.77
2019-02-21T22:11:12.011Z,26.76
2019-02-21T22:16:21.174Z,26.02
2019-02-21T22:21:30.693Z,24.76
2019-02-21T22:26:39.106Z,24.38
2019-02-21T22:31:50.320Z,23.46
2019-02-21T22:36:49.270Z,23.26
2019-02-21T22:41:58.298Z,25.03
2019-02-21T22:47:07.462Z,23.87
2019-02-21T22:52:17.136Z,24.28
2019-02-21T22:57:25.780Z,26.16
2019-02-21T23:02:24.152Z,25.82
2019-02-21T23:07:32.638Z,26.45
2019-02-21T23:12:41.699Z,26.78
2019-02-21T23:17:50.549Z,27.77
2019-02-21T23:22:59.415Z,29.54
2019-02-21T23:28:08.683Z,29.44
2019-02-21T23:33:17.061Z,30.67
2019-02-21T23:38:26.491Z,30.61
2019-02-21T23:43:35.535Z,30.64
2019-02-21T23:48:44.941Z,32.53
2019-02-21T23:54:02.794Z,32.37
2019-02-21T23:59:02.188Z,33.36
